Time;durP1;ratioP1;P1;durP2;ratioP2;P2;SDS_P1;SDS_P2;PMS_P1;PMS_P2;Temp;Humidity;BMP_temperature;BMP_pressure;BME280_temperature;BME280_humidity;BME280_pressure;Samples;Min_cycle;Max_cycle;Signal;HPM_P1;HPM_P2
2022/02/28 00:05:54;;;;;;;2.28;1.15;;;-3.80;93.60;;;;;;21066324;28;20407;-52
2022/02/28 00:15:57;;;;;;;3.28;1.30;;;-3.90;93.80;;;;;;21065798;28;20040;-52
2022/02/28 00:26:01;;;;;;;3.13;1.15;;;-4.00;94.10;;;;;;21066288;28;20116;-53
2022/02/28 00:36:04;;;;;;;2.17;1.10;;;-4.10;94.30;;;;;;21065261;28;20524;-54
2022/02/28 00:46:08;;;;;;;2.47;1.08;;;-4.20;94.10;;;;;;21048495;28;20610;-54
2022/02/28 00:56:12;;;;;;;3.25;1.52;;;-4.10;94.30;;;;;;21081644;28;20459;-56
2022/02/28 01:06:16;;;;;;;3.08;1.63;;;-4.20;94.50;;;;;;21080239;28;20098;-56
2022/02/28 01:16:18;;;;;;;3.90;1.85;;;-4.30;95.30;;;;;;21079996;28;20031;-52
2022/02/28 01:26:21;;;;;;;4.28;1.70;;;-4.40;95.80;;;;;;21078846;28;20036;-53
2022/02/28 01:36:23;;;;;;;3.33;1.42;;;-4.50;96.10;;;;;;21078149;28;20096;-54
2022/02/28 01:46:26;;;;;;;3.15;1.63;;;-4.60;96.40;;;;;;21077593;28;20058;-58
2022/02/28 01:56:30;;;;;;;4.15;1.58;;;-4.50;96.80;;;;;;21077121;28;20044;-56
2022/02/28 02:06:35;;;;;;;2.95;1.20;;;-4.50;96.10;;;;;;21058915;28;20036;-55
2022/02/28 02:16:41;;;;;;;1.45;0.65;;;-4.50;94.90;;;;;;21075446;28;20048;-54
2022/02/28 02:26:43;;;;;;;4.80;1.25;;;-4.50;95.10;;;;;;21074479;28;20089;-52
2022/02/28 02:36:46;;;;;;;3.38;1.30;;;-4.20;94.20;;;;;;21057101;28;20032;-52
2022/02/28 02:46:52;;;;;;;2.17;1.27;;;-4.20;94.50;;;;;;21073468;28;20081;-54
2022/02/28 02:56:59;;;;;;;10.38;1.40;;;-4.30;95.20;;;;;;21055396;28;20487;-54
2022/02/28 03:07:02;;;;;;;3.10;1.70;;;-4.70;95.40;;;;;;21072862;28;20044;-56
2022/02/28 03:17:06;;;;;;;3.50;1.52;;;-4.70;95.80;;;;;;21070379;28;20042;-56
2022/02/28 03:27:09;;;;;;;2.95;1.50;;;-4.80;96.00;;;;;;21070081;28;20414;-53
2022/02/28 03:37:12;;;;;;;2.47;1.33;;;-4.80;96.10;;;;;;21035448;28;20085;-56
2022/02/28 03:47:14;;;;;;;3.05;1.55;;;-4.80;96.00;;;;;;21067567;28;20483;-53
2022/02/28 03:57:47;;;;;;;3.63;1.45;;;-5.00;96.50;;;;;;21067044;28;20044;-53
2022/02/28 04:07:50;;;;;;;3.10;1.42;;;-5.00;95.80;;;;;;21049772;28;20039;-56
2022/02/28 04:17:53;;;;;;;2.70;1.15;;;-5.00;96.20;;;;;;21066018;28;20032;-56
2022/02/28 04:27:55;;;;;;;2.72;1.10;;;-4.90;96.10;;;;;;21065432;28;20078;-53
2022/02/28 04:38:03;;;;;;;3.20;1.42;;;-4.90;95.90;;;;;;21065191;28;20449;-53
2022/02/28 04:48:06;;;;;;;4.05;1.30;;;-4.80;95.50;;;;;;21048237;28;20036;-53
2022/02/28 04:58:27;;;;;;;2.65;1.17;;;-4.50;94.20;;;;;;21064647;28;20418;-52
2022/02/28 05:08:54;;;;;;;2.90;1.55;;;-4.30;94.30;;;;;;21066116;28;20066;-53
2022/02/28 05:18:57;;;;;;;2.35;1.30;;;-4.50;94.80;;;;;;21046737;28;20417;-53
2022/02/28 05:29:00;;;;;;;5.07;2.00;;;-4.80;95.60;;;;;;21063367;28;20480;-54
2022/02/28 05:39:03;;;;;;;8.48;2.03;;;-5.10;95.90;;;;;;21075318;28;20032;-55
2022/02/28 05:49:06;;;;;;;6.18;1.65;;;-5.10;96.60;;;;;;21076952;28;20097;-56
2022/02/28 05:59:10;;;;;;;3.63;1.55;;;-5.10;96.40;;;;;;21076401;28;20462;-53
2022/02/28 06:09:13;;;;;;;3.95;1.80;;;-5.00;96.80;;;;;;21075757;28;20043;-54
2022/02/28 06:19:16;;;;;;;2.45;1.50;;;-5.00;96.30;;;;;;21074611;28;20061;-52
2022/02/28 06:29:19;;;;;;;2.53;1.20;;;-4.60;94.90;;;;;;21074266;28;20036;-55
2022/02/28 06:39:21;;;;;;;2.40;1.23;;;-4.20;93.80;;;;;;21073586;28;20043;-53
2022/02/28 06:49:24;;;;;;;2.80;1.40;;;-4.00;92.80;;;;;;21073297;28;20085;-53
2022/02/28 06:59:26;;;;;;;2.65;1.40;;;-3.80;93.20;;;;;;21071458;28;20113;-53
2022/02/28 07:09:29;;;;;;;4.65;1.30;;;-3.50;92.50;;;;;;21054700;28;20495;-52
2022/02/28 07:19:35;;;;;;;3.80;1.25;;;-3.40;92.70;;;;;;21069802;28;20101;-52
2022/02/28 07:29:37;;;;;;;1.92;1.13;;;-3.30;93.00;;;;;;21069214;28;20089;-52
2022/02/28 07:39:40;;;;;;;2.42;1.20;;;-2.60;91.20;;;;;;21068999;28;20445;-56
2022/02/28 07:49:43;;;;;;;1.92;1.00;;;-1.60;89.20;;;;;;21067324;28;20048;-54
2022/02/28 07:59:45;;;;;;;2.03;1.13;;;-0.30;88.40;;;;;;21049829;28;20040;-54
2022/02/28 08:09:48;;;;;;;2.03;0.93;;;0.90;80.60;;;;;;21068144;28;20499;-57
2022/02/28 08:19:51;;;;;;;2.08;0.90;;;1.70;81.80;;;;;;21066628;28;20096;-55
2022/02/28 08:29:54;;;;;;;2.45;0.93;;;2.40;75.50;;;;;;21066020;28;20065;-57
2022/02/28 08:39:59;;;;;;;2.28;0.88;;;2.60;74.00;;;;;;21064720;28;20471;-57
2022/02/28 08:50:02;;;;;;;1.50;0.93;;;3.50;72.60;;;;;;21064731;28;20101;-57
2022/02/28 09:00:08;;;;;;;1.10;0.77;;;4.10;61.70;;;;;;21065638;28;20036;-54
2022/02/28 09:10:10;;;;;;;1.85;1.05;;;4.30;58.20;;;;;;21070699;28;20036;-57
2022/02/28 09:20:14;;;;;;;3.70;0.90;;;4.80;67.40;;;;;;21080476;28;20097;-60
2022/02/28 09:30:17;;;;;;;1.60;0.70;;;5.50;63.30;;;;;;21080084;28;20039;-60
2022/02/28 09:40:29;;;;;;;1.85;0.65;;;5.60;62.30;;;;;;21061385;28;20043;-58
2022/02/28 09:50:50;;;;;;;2.00;0.90;;;5.80;62.00;;;;;;21077199;28;20102;-60
2022/02/28 10:01:13;;;;;;;1.33;0.70;;;6.20;61.00;;;;;;20884236;28;20107;-60
2022/02/28 10:11:32;;;;;;;2.38;0.90;;;6.40;58.80;;;;;;20883500;28;20151;-61
2022/02/28 10:21:40;;;;;;;1.30;0.73;;;6.70;58.80;;;;;;20881703;28;20071;-61
2022/02/28 10:31:45;;;;;;;2.75;0.90;;;7.10;54.50;;;;;;20920158;28;20067;-62
2022/02/28 10:42:20;;;;;;;1.27;0.77;;;7.40;55.80;;;;;;20980249;28;20070;-61
2022/02/28 10:52:23;;;;;;;1.33;0.68;;;7.90;55.40;;;;;;20979353;28;20049;-62
2022/02/28 11:02:33;;;;;;;1.30;0.80;;;8.20;54.70;;;;;;20962158;28;20048;-62
2022/02/28 11:12:36;;;;;;;1.70;0.70;;;8.10;53.90;;;;;;20993834;28;20521;-61
2022/02/28 11:22:41;;;;;;;1.63;1.10;;;8.40;55.30;;;;;;21069834;28;20036;-62
2022/02/28 11:32:44;;;;;;;2.42;1.40;;;8.40;54.70;;;;;;21069071;28;20032;-61
2022/02/28 11:43:23;;;;;;;3.58;1.38;;;8.50;59.50;;;;;;21069886;28;20032;-60
2022/02/28 11:53:52;;;;;;;3.17;1.95;;;8.80;59.10;;;;;;20793255;28;20049;-61
2022/02/28 12:04:07;;;;;;;2.40;1.42;;;8.80;59.40;;;;;;20792963;28;20077;-61
2022/02/28 12:14:09;;;;;;;3.13;1.77;;;8.80;59.40;;;;;;20791856;28;20049;-61
2022/02/28 12:24:14;;;;;;;3.80;2.30;;;9.00;61.50;;;;;;20936993;28;20407;-60
2022/02/28 12:34:17;;;;;;;5.60;2.72;;;9.00;61.50;;;;;;21065191;28;20475;-61
2022/02/28 12:44:19;;;;;;;5.03;3.13;;;8.80;63.70;;;;;;21073387;28;20491;-63
2022/02/28 12:54:26;;;;;;;6.43;2.88;;;8.00;65.90;;;;;;21092379;28;20047;-63
2022/02/28 13:04:29;;;;;;;5.18;3.08;;;8.10;64.50;;;;;;21091904;28;20048;-63
2022/02/28 13:14:32;;;;;;;5.80;3.75;;;8.00;67.10;;;;;;21092513;28;20101;-63
2022/02/28 13:24:38;;;;;;;5.28;3.55;;;8.00;65.70;;;;;;21091338;28;20089;-64
2022/02/28 13:34:43;;;;;;;5.95;3.55;;;8.00;67.20;;;;;;21074170;28;20035;-64
2022/02/28 13:44:48;;;;;;;6.82;3.90;;;8.10;67.30;;;;;;21073487;28;20036;-64
2022/02/28 13:55:06;;;;;;;7.38;3.95;;;8.00;66.50;;;;;;21089100;28;20558;-63
2022/02/28 14:05:09;;;;;;;5.10;3.63;;;7.10;67.50;;;;;;21076875;28;20040;-63
2022/02/28 14:15:11;;;;;;;6.68;3.85;;;6.20;68.10;;;;;;21058764;28;20090;-62
2022/02/28 14:25:16;;;;;;;8.07;4.47;;;5.60;69.80;;;;;;21075902;28;20093;-62
2022/02/28 14:35:46;;;;;;;8.30;4.60;;;5.30;71.10;;;;;;20801773;28;20041;-62
2022/02/28 14:45:48;;;;;;;8.98;4.40;;;4.90;72.20;;;;;;20801306;28;20061;-61
2022/02/28 14:55:52;;;;;;;6.30;4.00;;;4.60;73.00;;;;;;20798967;28;20071;-62
2022/02/28 15:05:55;;;;;;;7.07;4.80;;;4.20;72.90;;;;;;20836076;28;20064;-61
2022/02/28 15:15:57;;;;;;;9.05;4.32;;;3.90;74.40;;;;;;20999149;28;20035;-60
2022/02/28 15:26:00;;;;;;;7.78;4.75;;;3.50;75.00;;;;;;21069926;28;20456;-60
2022/02/28 15:36:03;;;;;;;8.85;5.20;;;3.20;75.90;;;;;;21069284;28;20485;-60
2022/02/28 15:46:06;;;;;;;8.75;4.85;;;2.90;77.50;;;;;;21069091;28;20032;-59
2022/02/28 15:56:08;;;;;;;10.10;5.35;;;2.50;79.20;;;;;;21068103;28;20132;-58
2022/02/28 16:06:11;;;;;;;8.70;5.55;;;1.70;80.80;;;;;;21068427;28;20048;-59
2022/02/28 16:16:14;;;;;;;17.42;5.05;;;1.00;84.10;;;;;;21067930;28;20066;-60
2022/02/28 16:26:18;;;;;;;11.68;5.45;;;0.50;87.10;;;;;;21066451;28;20036;-58
2022/02/28 16:36:21;;;;;;;11.30;7.25;;;0.10;88.60;;;;;;21066967;28;20085;-60
2022/02/28 16:46:23;;;;;;;9.82;5.80;;;-0.20;90.30;;;;;;21066476;28;20509;-58
2022/02/28 16:56:26;;;;;;;10.13;5.57;;;-0.40;90.90;;;;;;21064226;28;20113;-58
2022/02/28 17:06:29;;;;;;;25.17;7.30;;;-0.80;91.50;;;;;;21063760;28;20040;-56
2022/02/28 17:16:32;;;;;;;10.70;5.85;;;-1.20;92.90;;;;;;21046913;28;20036;-58
2022/02/28 17:26:36;;;;;;;11.55;6.45;;;-1.40;93.40;;;;;;21062886;28;20070;-58
2022/02/28 17:36:39;;;;;;;11.80;7.03;;;-1.60;94.50;;;;;;21077176;28;20040;-57
2022/02/28 17:46:43;;;;;;;12.63;7.28;;;-1.80;95.50;;;;;;21077977;28;20062;-59
2022/02/28 17:56:47;;;;;;;12.82;7.07;;;-1.90;96.80;;;;;;21077417;28;20048;-59
2022/02/28 18:06:50;;;;;;;11.98;7.55;;;-2.10;98.00;;;;;;21076690;28;20073;-58
2022/02/28 18:16:53;;;;;;;16.88;10.15;;;-2.30;99.90;;;;;;21075679;28;20438;-55
2022/02/28 18:26:57;;;;;;;17.30;9.20;;;-2.20;99.90;;;;;;21075219;28;20513;-54
2022/02/28 18:37:01;;;;;;;23.52;10.13;;;-2.30;99.90;;;;;;21057062;28;20488;-54
2022/02/28 18:47:03;;;;;;;22.30;10.65;;;-2.40;99.90;;;;;;21072808;28;20425;-54
2022/02/28 18:57:07;;;;;;;20.27;10.68;;;-2.60;99.90;;;;;;21055621;28;20051;-58
2022/02/28 19:07:10;;;;;;;21.40;11.38;;;-2.80;99.90;;;;;;21071363;28;20040;-57
2022/02/28 19:17:13;;;;;;;27.23;12.52;;;-2.90;99.90;;;;;;21071146;28;20032;-56
2022/02/28 19:27:18;;;;;;;24.27;12.13;;;-3.10;99.90;;;;;;21069862;28;20444;-58
2022/02/28 19:37:21;;;;;;;27.25;12.68;;;-3.20;99.90;;;;;;21070489;28;20043;-57
2022/02/28 19:47:23;;;;;;;25.17;13.48;;;-3.30;99.90;;;;;;21069414;28;20379;-58
2022/02/28 19:57:26;;;;;;;26.75;13.45;;;-3.40;99.90;;;;;;21067606;28;20048;-56
2022/02/28 20:07:29;;;;;;;26.50;14.07;;;-3.50;99.90;;;;;;21066827;28;20055;-59
2022/02/28 20:17:35;;;;;;;24.25;13.55;;;-3.40;99.90;;;;;;21066052;28;20040;-54
2022/02/28 20:27:39;;;;;;;23.60;12.63;;;-3.00;99.90;;;;;;21065541;28;20491;-56
2022/02/28 20:37:45;;;;;;;23.63;12.95;;;-2.50;99.90;;;;;;21065273;28;20032;-59
2022/02/28 20:47:48;;;;;;;20.77;12.05;;;-2.20;99.90;;;;;;21064368;28;20032;-57
2022/02/28 20:57:51;;;;;;;25.67;12.75;;;-1.90;99.90;;;;;;21063917;28;20090;-55
2022/02/28 21:07:54;;;;;;;21.75;12.40;;;-1.70;99.90;;;;;;21072657;28;20399;-56
2022/02/28 21:17:57;;;;;;;21.75;12.68;;;-1.60;99.90;;;;;;21080240;28;20032;-58
2022/02/28 21:28:00;;;;;;;26.25;14.80;;;-1.50;99.90;;;;;;21080340;28;20471;-58
2022/02/28 21:38:03;;;;;;;30.40;17.33;;;-1.40;99.90;;;;;;21079321;28;20056;-55
2022/02/28 21:48:06;;;;;;;24.13;12.88;;;-1.60;99.90;;;;;;21077898;28;20062;-59
2022/02/28 21:58:08;;;;;;;20.98;11.07;;;-1.70;99.90;;;;;;21076519;28;20052;-57
2022/02/28 22:08:11;;;;;;;13.35;7.45;;;-1.80;99.90;;;;;;21076291;28;20511;-56
2022/02/28 22:18:14;;;;;;;11.90;6.40;;;-2.00;99.90;;;;;;21074335;28;20093;-54
2022/02/28 22:28:18;;;;;;;10.27;5.78;;;-2.20;99.90;;;;;;21074988;28;20048;-57
2022/02/28 22:38:22;;;;;;;9.52;5.28;;;-2.20;99.90;;;;;;21074552;28;20441;-58
2022/02/28 22:48:24;;;;;;;11.30;5.60;;;-2.40;99.90;;;;;;21074467;28;20094;-58
2022/02/28 22:58:27;;;;;;;11.00;5.25;;;-2.50;99.90;;;;;;21072098;28;20460;-54
2022/02/28 23:18:50;;;;;;;11.90;5.93;;;-2.80;99.90;;;;;;21070707;28;20032;-56
2022/02/28 23:28:54;;;;;;;11.30;5.90;;;-3.00;99.90;;;;;;21070352;28;20447;-59
2022/02/28 23:38:56;;;;;;;11.07;5.63;;;-3.10;99.90;;;;;;21069774;28;20040;-57
2022/02/28 23:48:58;;;;;;;12.57;5.85;;;-3.20;99.90;;;;;;21068469;28;20463;-58
2022/02/28 23:59:01;;;;;;;13.85;6.07;;;-3.20;99.90;;;;;;21067441;28;20119;-56
